sensor_id;sensor_type;location;lat;lon;timestamp;temperature;humidity
32215;DHT22;18708;53.124;23.190;2022-07-05T00:00:08;17.00;99.90
32215;DHT22;18708;53.124;23.190;2022-07-05T00:02:34;17.00;99.90
32215;DHT22;18708;53.124;23.190;2022-07-05T00:05:00;17.00;99.90
32215;DHT22;18708;53.124;23.190;2022-07-05T00:07:25;17.00;99.90
32215;DHT22;18708;53.124;23.190;2022-07-05T00:09:52;17.00;99.90
32215;DHT22;18708;53.124;23.190;2022-07-05T00:12:18;16.90;99.90
32215;DHT22;18708;53.124;23.190;2022-07-05T00:14:44;16.90;99.90
32215;DHT22;18708;53.124;23.190;2022-07-05T00:17:10;16.90;99.90
32215;DHT22;18708;53.124;23.190;2022-07-05T00:19:36;16.90;99.90
32215;DHT22;18708;53.124;23.190;2022-07-05T00:22:02;17.00;99.90
32215;DHT22;18708;53.124;23.190;2022-07-05T00:24:27;17.00;99.90
32215;DHT22;18708;53.124;23.190;2022-07-05T00:26:53;16.90;99.90
32215;DHT22;18708;53.124;23.190;2022-07-05T00:29:18;16.80;99.90
32215;DHT22;18708;53.124;23.190;2022-07-05T00:31:44;15.00;99.90
32215;DHT22;18708;53.124;23.190;2022-07-05T00:34:10;16.60;99.90
32215;DHT22;18708;53.124;23.190;2022-07-05T00:36:35;16.60;99.90
32215;DHT22;18708;53.124;23.190;2022-07-05T00:39:01;16.60;99.90
32215;DHT22;18708;53.124;23.190;2022-07-05T00:41:26;16.50;99.90
32215;DHT22;18708;53.124;23.190;2022-07-05T00:43:59;16.50;99.90
32215;DHT22;18708;53.124;23.190;2022-07-05T00:46:25;16.50;99.90
32215;DHT22;18708;53.124;23.190;2022-07-05T00:48:51;16.50;99.90
32215;DHT22;18708;53.124;23.190;2022-07-05T00:51:17;16.50;99.90
32215;DHT22;18708;53.124;23.190;2022-07-05T00:53:43;16.50;99.90
32215;DHT22;18708;53.124;23.190;2022-07-05T00:56:09;16.50;99.90
32215;DHT22;18708;53.124;23.190;2022-07-05T00:58:35;16.50;99.90
32215;DHT22;18708;53.124;23.190;2022-07-05T01:01:02;16.40;99.90
32215;DHT22;18708;53.124;23.190;2022-07-05T01:03:28;16.40;99.90
32215;DHT22;18708;53.124;23.190;2022-07-05T01:05:54;16.40;99.90
32215;DHT22;18708;53.124;23.190;2022-07-05T01:08:20;16.40;99.90
32215;DHT22;18708;53.124;23.190;2022-07-05T01:10:46;16.40;99.90
32215;DHT22;18708;53.124;23.190;2022-07-05T01:13:12;16.40;99.90
32215;DHT22;18708;53.124;23.190;2022-07-05T01:15:38;16.30;99.90
32215;DHT22;18708;53.124;23.190;2022-07-05T01:18:04;16.30;99.90
32215;DHT22;18708;53.124;23.190;2022-07-05T01:20:30;16.30;99.90
32215;DHT22;18708;53.124;23.190;2022-07-05T01:22:56;16.20;99.90
32215;DHT22;18708;53.124;23.190;2022-07-05T01:25:23;16.30;99.90
32215;DHT22;18708;53.124;23.190;2022-07-05T01:27:49;16.30;99.90
32215;DHT22;18708;53.124;23.190;2022-07-05T01:30:15;16.30;99.90
32215;DHT22;18708;53.124;23.190;2022-07-05T01:32:40;16.30;99.90
32215;DHT22;18708;53.124;23.190;2022-07-05T01:35:07;16.30;99.90
32215;DHT22;18708;53.124;23.190;2022-07-05T01:37:33;16.30;99.90
32215;DHT22;18708;53.124;23.190;2022-07-05T01:39:58;16.30;99.90
32215;DHT22;18708;53.124;23.190;2022-07-05T01:42:26;16.30;99.90
32215;DHT22;18708;53.124;23.190;2022-07-05T01:44:52;16.20;99.90
32215;DHT22;18708;53.124;23.190;2022-07-05T01:47:17;16.30;99.90
32215;DHT22;18708;53.124;23.190;2022-07-05T01:49:43;16.20;99.90
32215;DHT22;18708;53.124;23.190;2022-07-05T01:52:11;16.20;99.90
32215;DHT22;18708;53.124;23.190;2022-07-05T01:54:38;16.10;99.90
32215;DHT22;18708;53.124;23.190;2022-07-05T01:57:04;16.30;99.90
32215;DHT22;18708;53.124;23.190;2022-07-05T01:59:34;16.50;99.90
32215;DHT22;18708;53.124;23.190;2022-07-05T02:02:00;16.40;99.90
32215;DHT22;18708;53.124;23.190;2022-07-05T02:04:25;16.30;99.90
32215;DHT22;18708;53.124;23.190;2022-07-05T02:06:51;16.20;99.90
32215;DHT22;18708;53.124;23.190;2022-07-05T02:09:17;16.20;99.90
32215;DHT22;18708;53.124;23.190;2022-07-05T02:11:42;16.20;99.90
32215;DHT22;18708;53.124;23.190;2022-07-05T02:14:08;16.40;99.90
32215;DHT22;18708;53.124;23.190;2022-07-05T02:16:33;16.70;99.90
32215;DHT22;18708;53.124;23.190;2022-07-05T02:18:59;17.00;99.90
32215;DHT22;18708;53.124;23.190;2022-07-05T02:21:25;17.00;99.90
32215;DHT22;18708;53.124;23.190;2022-07-05T02:23:50;16.80;99.90
32215;DHT22;18708;53.124;23.190;2022-07-05T02:26:16;16.70;99.90
32215;DHT22;18708;53.124;23.190;2022-07-05T02:28:41;16.60;99.90
32215;DHT22;18708;53.124;23.190;2022-07-05T02:31:07;16.60;99.90
32215;DHT22;18708;53.124;23.190;2022-07-05T02:33:33;16.60;99.90
32215;DHT22;18708;53.124;23.190;2022-07-05T02:36:05;16.70;99.90
32215;DHT22;18708;53.124;23.190;2022-07-05T02:38:32;16.60;99.90
32215;DHT22;18708;53.124;23.190;2022-07-05T02:40:57;16.70;99.90
32215;DHT22;18708;53.124;23.190;2022-07-05T02:43:23;16.50;99.90
32215;DHT22;18708;53.124;23.190;2022-07-05T02:45:48;16.60;99.90
32215;DHT22;18708;53.124;23.190;2022-07-05T02:48:14;16.60;99.90
32215;DHT22;18708;53.124;23.190;2022-07-05T02:50:39;16.70;99.90
32215;DHT22;18708;53.124;23.190;2022-07-05T02:53:05;16.80;99.90
32215;DHT22;18708;53.124;23.190;2022-07-05T02:55:30;16.70;99.90
32215;DHT22;18708;53.124;23.190;2022-07-05T02:57:56;16.60;99.90
32215;DHT22;18708;53.124;23.190;2022-07-05T03:00:23;16.60;99.90
32215;DHT22;18708;53.124;23.190;2022-07-05T03:02:48;16.60;99.90
32215;DHT22;18708;53.124;23.190;2022-07-05T03:05:14;16.70;99.90
32215;DHT22;18708;53.124;23.190;2022-07-05T03:07:40;16.90;99.90
32215;DHT22;18708;53.124;23.190;2022-07-05T03:10:05;16.80;99.90
32215;DHT22;18708;53.124;23.190;2022-07-05T03:12:31;16.80;99.90
32215;DHT22;18708;53.124;23.190;2022-07-05T03:14:56;16.70;99.90
32215;DHT22;18708;53.124;23.190;2022-07-05T03:17:22;16.70;99.90
32215;DHT22;18708;53.124;23.190;2022-07-05T03:19:48;16.60;99.90
32215;DHT22;18708;53.124;23.190;2022-07-05T03:22:13;16.60;99.90
32215;DHT22;18708;53.124;23.190;2022-07-05T03:24:39;16.70;99.90
32215;DHT22;18708;53.124;23.190;2022-07-05T03:27:04;16.70;99.90
32215;DHT22;18708;53.124;23.190;2022-07-05T03:29:30;16.70;99.90
32215;DHT22;18708;53.124;23.190;2022-07-05T03:31:55;16.80;99.90
32215;DHT22;18708;53.124;23.190;2022-07-05T03:34:21;16.80;99.90
32215;DHT22;18708;53.124;23.190;2022-07-05T03:36:46;16.80;99.90
32215;DHT22;18708;53.124;23.190;2022-07-05T03:39:12;14.20;99.90
32215;DHT22;18708;53.124;23.190;2022-07-05T03:41:38;16.80;99.90
32215;DHT22;18708;53.124;23.190;2022-07-05T03:44:03;16.90;99.90
32215;DHT22;18708;53.124;23.190;2022-07-05T03:46:29;17.00;99.90
32215;DHT22;18708;53.124;23.190;2022-07-05T03:48:54;17.10;99.90
32215;DHT22;18708;53.124;23.190;2022-07-05T03:51:20;17.10;99.90
32215;DHT22;18708;53.124;23.190;2022-07-05T03:53:45;17.10;99.90
32215;DHT22;18708;53.124;23.190;2022-07-05T03:56:11;17.20;99.90
32215;DHT22;18708;53.124;23.190;2022-07-05T03:58:36;17.20;99.90
32215;DHT22;18708;53.124;23.190;2022-07-05T04:01:02;17.20;99.90
32215;DHT22;18708;53.124;23.190;2022-07-05T04:03:28;17.30;99.90
32215;DHT22;18708;53.124;23.190;2022-07-05T04:05:53;17.40;99.90
32215;DHT22;18708;53.124;23.190;2022-07-05T04:08:19;17.60;99.90
32215;DHT22;18708;53.124;23.190;2022-07-05T04:10:44;17.60;99.90
32215;DHT22;18708;53.124;23.190;2022-07-05T04:13:10;17.70;99.90
32215;DHT22;18708;53.124;23.190;2022-07-05T04:15:35;17.70;99.90
32215;DHT22;18708;53.124;23.190;2022-07-05T04:18:01;17.90;99.90
32215;DHT22;18708;53.124;23.190;2022-07-05T04:20:27;17.90;99.90
32215;DHT22;18708;53.124;23.190;2022-07-05T04:22:52;17.90;99.90
32215;DHT22;18708;53.124;23.190;2022-07-05T04:25:18;18.00;99.90
32215;DHT22;18708;53.124;23.190;2022-07-05T04:27:48;18.10;99.90
32215;DHT22;18708;53.124;23.190;2022-07-05T04:30:14;18.20;99.90
32215;DHT22;18708;53.124;23.190;2022-07-05T04:32:39;18.30;99.90
32215;DHT22;18708;53.124;23.190;2022-07-05T04:35:05;18.40;99.90
32215;DHT22;18708;53.124;23.190;2022-07-05T04:37:30;18.50;99.90
32215;DHT22;18708;53.124;23.190;2022-07-05T04:39:56;18.60;99.90
32215;DHT22;18708;53.124;23.190;2022-07-05T04:42:22;18.60;99.90
32215;DHT22;18708;53.124;23.190;2022-07-05T04:44:47;18.70;99.90
32215;DHT22;18708;53.124;23.190;2022-07-05T04:47:13;18.80;99.90
32215;DHT22;18708;53.124;23.190;2022-07-05T04:49:38;18.90;99.90
32215;DHT22;18708;53.124;23.190;2022-07-05T04:52:04;19.00;99.90
32215;DHT22;18708;53.124;23.190;2022-07-05T04:54:30;19.10;99.90
32215;DHT22;18708;53.124;23.190;2022-07-05T04:56:55;19.20;99.90
32215;DHT22;18708;53.124;23.190;2022-07-05T04:59:21;19.20;99.90
32215;DHT22;18708;53.124;23.190;2022-07-05T05:01:46;19.30;99.90
32215;DHT22;18708;53.124;23.190;2022-07-05T05:04:12;19.40;99.90
32215;DHT22;18708;53.124;23.190;2022-07-05T05:06:37;19.60;99.90
32215;DHT22;18708;53.124;23.190;2022-07-05T05:09:03;19.70;99.90
32215;DHT22;18708;53.124;23.190;2022-07-05T05:11:28;19.80;99.90
32215;DHT22;18708;53.124;23.190;2022-07-05T05:13:54;20.00;99.90
32215;DHT22;18708;53.124;23.190;2022-07-05T05:16:19;20.10;99.90
32215;DHT22;18708;53.124;23.190;2022-07-05T05:18:45;20.30;99.90
32215;DHT22;18708;53.124;23.190;2022-07-05T05:21:11;20.40;99.90
32215;DHT22;18708;53.124;23.190;2022-07-05T05:23:36;20.60;99.90
32215;DHT22;18708;53.124;23.190;2022-07-05T05:26:02;20.70;99.90
32215;DHT22;18708;53.124;23.190;2022-07-05T05:28:27;20.70;99.90
32215;DHT22;18708;53.124;23.190;2022-07-05T05:30:53;20.80;99.90
32215;DHT22;18708;53.124;23.190;2022-07-05T05:33:19;20.80;99.90
32215;DHT22;18708;53.124;23.190;2022-07-05T05:35:44;20.90;99.90
32215;DHT22;18708;53.124;23.190;2022-07-05T05:38:10;20.90;99.90
32215;DHT22;18708;53.124;23.190;2022-07-05T05:40:35;21.10;99.90
32215;DHT22;18708;53.124;23.190;2022-07-05T05:43:06;21.20;99.90
32215;DHT22;18708;53.124;23.190;2022-07-05T05:45:32;21.30;99.90
32215;DHT22;18708;53.124;23.190;2022-07-05T05:47:58;21.40;99.90
32215;DHT22;18708;53.124;23.190;2022-07-05T05:50:25;21.40;99.90
32215;DHT22;18708;53.124;23.190;2022-07-05T05:52:50;21.60;99.90
32215;DHT22;18708;53.124;23.190;2022-07-05T05:55:16;21.70;99.90
32215;DHT22;18708;53.124;23.190;2022-07-05T05:57:42;21.80;99.90
32215;DHT22;18708;53.124;23.190;2022-07-05T06:00:08;21.90;99.90
32215;DHT22;18708;53.124;23.190;2022-07-05T06:02:34;22.10;99.90
32215;DHT22;18708;53.124;23.190;2022-07-05T06:04:59;22.10;99.90
32215;DHT22;18708;53.124;23.190;2022-07-05T06:07:25;22.30;99.90
32215;DHT22;18708;53.124;23.190;2022-07-05T06:09:51;22.40;99.90
32215;DHT22;18708;53.124;23.190;2022-07-05T06:12:16;22.70;99.90
32215;DHT22;18708;53.124;23.190;2022-07-05T06:14:42;22.80;99.90
32215;DHT22;18708;53.124;23.190;2022-07-05T06:17:07;23.00;99.90
32215;DHT22;18708;53.124;23.190;2022-07-05T06:19:33;23.10;99.90
32215;DHT22;18708;53.124;23.190;2022-07-05T06:21:58;23.00;99.90
32215;DHT22;18708;53.124;23.190;2022-07-05T06:24:24;23.20;99.90
32215;DHT22;18708;53.124;23.190;2022-07-05T06:26:50;23.40;99.90
32215;DHT22;18708;53.124;23.190;2022-07-05T06:29:15;23.50;99.90
32215;DHT22;18708;53.124;23.190;2022-07-05T06:31:41;23.60;99.90
32215;DHT22;18708;53.124;23.190;2022-07-05T06:34:06;23.80;99.90
32215;DHT22;18708;53.124;23.190;2022-07-05T06:36:32;24.00;99.90
32215;DHT22;18708;53.124;23.190;2022-07-05T06:38:57;24.40;99.90
32215;DHT22;18708;53.124;23.190;2022-07-05T06:41:23;24.90;99.90
32215;DHT22;18708;53.124;23.190;2022-07-05T06:43:48;25.10;99.90
32215;DHT22;18708;53.124;23.190;2022-07-05T06:46:14;25.50;99.90
32215;DHT22;18708;53.124;23.190;2022-07-05T06:48:39;25.80;99.90
32215;DHT22;18708;53.124;23.190;2022-07-05T06:51:05;26.10;99.90
32215;DHT22;18708;53.124;23.190;2022-07-05T06:53:31;26.00;99.90
32215;DHT22;18708;53.124;23.190;2022-07-05T06:55:57;26.00;99.90
32215;DHT22;18708;53.124;23.190;2022-07-05T06:58:22;26.20;99.90
32215;DHT22;18708;53.124;23.190;2022-07-05T07:00:48;26.30;99.90
32215;DHT22;18708;53.124;23.190;2022-07-05T07:03:14;25.60;99.90
32215;DHT22;18708;53.124;23.190;2022-07-05T07:05:40;24.90;99.90
32215;DHT22;18708;53.124;23.190;2022-07-05T07:08:05;25.50;99.90
32215;DHT22;18708;53.124;23.190;2022-07-05T07:10:49;26.00;99.90
32215;DHT22;18708;53.124;23.190;2022-07-05T07:13:15;26.50;99.90
32215;DHT22;18708;53.124;23.190;2022-07-05T07:15:40;26.50;99.90
32215;DHT22;18708;53.124;23.190;2022-07-05T07:18:06;26.80;99.90
32215;DHT22;18708;53.124;23.190;2022-07-05T07:20:32;27.60;99.90
32215;DHT22;18708;53.124;23.190;2022-07-05T07:22:57;27.50;99.90
32215;DHT22;18708;53.124;23.190;2022-07-05T07:25:23;27.00;99.20
32215;DHT22;18708;53.124;23.190;2022-07-05T07:27:53;26.10;98.50
32215;DHT22;18708;53.124;23.190;2022-07-05T07:30:21;26.80;99.90
32215;DHT22;18708;53.124;23.190;2022-07-05T07:32:47;26.90;99.90
32215;DHT22;18708;53.124;23.190;2022-07-05T07:35:12;26.60;98.80
32215;DHT22;18708;53.124;23.190;2022-07-05T07:37:38;27.40;99.40
32215;DHT22;18708;53.124;23.190;2022-07-05T07:40:04;28.10;99.10
32215;DHT22;18708;53.124;23.190;2022-07-05T07:42:30;28.00;96.70
32215;DHT22;18708;53.124;23.190;2022-07-05T07:44:55;27.70;99.60
32215;DHT22;18708;53.124;23.190;2022-07-05T07:47:21;28.30;96.90
32215;DHT22;18708;53.124;23.190;2022-07-05T07:49:46;28.70;94.80
32215;DHT22;18708;53.124;23.190;2022-07-05T07:52:12;28.80;96.40
32215;DHT22;18708;53.124;23.190;2022-07-05T07:54:38;29.30;95.50
32215;DHT22;18708;53.124;23.190;2022-07-05T07:57:03;28.70;94.00
32215;DHT22;18708;53.124;23.190;2022-07-05T07:59:30;28.90;93.50
32215;DHT22;18708;53.124;23.190;2022-07-05T08:01:56;28.90;92.50
32215;DHT22;18708;53.124;23.190;2022-07-05T08:04:22;28.80;93.50
32215;DHT22;18708;53.124;23.190;2022-07-05T08:06:47;29.00;92.60
32215;DHT22;18708;53.124;23.190;2022-07-05T08:09:13;28.90;93.50
32215;DHT22;18708;53.124;23.190;2022-07-05T08:11:39;29.00;93.70
32215;DHT22;18708;53.124;23.190;2022-07-05T08:14:04;29.50;94.30
32215;DHT22;18708;53.124;23.190;2022-07-05T08:16:30;29.40;94.10
32215;DHT22;18708;53.124;23.190;2022-07-05T08:18:55;29.50;92.30
32215;DHT22;18708;53.124;23.190;2022-07-05T08:21:39;29.60;90.80
32215;DHT22;18708;53.124;23.190;2022-07-05T08:24:09;29.60;91.50
32215;DHT22;18708;53.124;23.190;2022-07-05T08:26:35;29.80;92.40
32215;DHT22;18708;53.124;23.190;2022-07-05T08:29:02;29.70;91.00
32215;DHT22;18708;53.124;23.190;2022-07-05T08:31:28;29.70;90.90
32215;DHT22;18708;53.124;23.190;2022-07-05T08:33:54;29.80;90.50
32215;DHT22;18708;53.124;23.190;2022-07-05T08:36:21;30.00;91.50
32215;DHT22;18708;53.124;23.190;2022-07-05T08:38:47;30.00;88.10
32215;DHT22;18708;53.124;23.190;2022-07-05T08:41:12;30.00;90.90
32215;DHT22;18708;53.124;23.190;2022-07-05T08:43:42;29.90;88.80
32215;DHT22;18708;53.124;23.190;2022-07-05T08:46:09;29.60;92.00
32215;DHT22;18708;53.124;23.190;2022-07-05T08:48:38;29.80;90.70
32215;DHT22;18708;53.124;23.190;2022-07-05T08:51:15;30.00;90.20
32215;DHT22;18708;53.124;23.190;2022-07-05T08:53:42;30.00;86.50
32215;DHT22;18708;53.124;23.190;2022-07-05T08:56:08;29.00;87.00
32215;DHT22;18708;53.124;23.190;2022-07-05T08:58:34;29.40;89.00
32215;DHT22;18708;53.124;23.190;2022-07-05T09:01:00;29.50;87.70
32215;DHT22;18708;53.124;23.190;2022-07-05T09:03:28;29.40;85.30
32215;DHT22;18708;53.124;23.190;2022-07-05T09:05:55;30.00;91.50
32215;DHT22;18708;53.124;23.190;2022-07-05T09:08:21;30.50;87.40
32215;DHT22;18708;53.124;23.190;2022-07-05T09:10:47;30.60;85.50
32215;DHT22;18708;53.124;23.190;2022-07-05T09:13:14;30.70;85.90
32215;DHT22;18708;53.124;23.190;2022-07-05T09:15:40;30.20;80.70
32215;DHT22;18708;53.124;23.190;2022-07-05T09:18:06;29.60;85.70
32215;DHT22;18708;53.124;23.190;2022-07-05T09:20:31;30.00;87.10
32215;DHT22;18708;53.124;23.190;2022-07-05T09:22:57;30.20;87.80
32215;DHT22;18708;53.124;23.190;2022-07-05T09:25:23;29.80;86.70
32215;DHT22;18708;53.124;23.190;2022-07-05T09:27:50;29.60;88.40
32215;DHT22;18708;53.124;23.190;2022-07-05T09:30:32;29.90;86.10
32215;DHT22;18708;53.124;23.190;2022-07-05T09:35:31;29.10;84.70
32215;DHT22;18708;53.124;23.190;2022-07-05T09:37:57;28.90;85.30
32215;DHT22;18708;53.124;23.190;2022-07-05T09:40:22;28.20;86.20
32215;DHT22;18708;53.124;23.190;2022-07-05T09:42:48;27.90;88.00
32215;DHT22;18708;53.124;23.190;2022-07-05T09:45:21;27.90;90.30
32215;DHT22;18708;53.124;23.190;2022-07-05T09:47:46;27.90;91.20
32215;DHT22;18708;53.124;23.190;2022-07-05T09:50:12;27.50;88.90
32215;DHT22;18708;53.124;23.190;2022-07-05T09:52:39;27.40;91.00
32215;DHT22;18708;53.124;23.190;2022-07-05T09:55:09;27.20;91.50
32215;DHT22;18708;53.124;23.190;2022-07-05T09:57:36;27.20;90.00
32215;DHT22;18708;53.124;23.190;2022-07-05T10:00:06;27.00;90.40
32215;DHT22;18708;53.124;23.190;2022-07-05T10:02:35;27.50;90.40
32215;DHT22;18708;53.124;23.190;2022-07-05T10:07:56;28.20;93.90
32215;DHT22;18708;53.124;23.190;2022-07-05T10:10:23;28.40;86.20
32215;DHT22;18708;53.124;23.190;2022-07-05T10:12:49;28.40;89.10
32215;DHT22;18708;53.124;23.190;2022-07-05T10:15:18;28.10;87.40
32215;DHT22;18708;53.124;23.190;2022-07-05T10:17:50;27.80;88.00
32215;DHT22;18708;53.124;23.190;2022-07-05T10:20:19;27.60;88.20
32215;DHT22;18708;53.124;23.190;2022-07-05T10:22:46;28.40;90.40
32215;DHT22;18708;53.124;23.190;2022-07-05T10:25:13;28.80;88.20
32215;DHT22;18708;53.124;23.190;2022-07-05T10:27:38;28.70;89.80
32215;DHT22;18708;53.124;23.190;2022-07-05T10:30:05;28.70;87.70
32215;DHT22;18708;53.124;23.190;2022-07-05T10:32:31;28.50;90.30
32215;DHT22;18708;53.124;23.190;2022-07-05T10:34:58;28.60;90.60
32215;DHT22;18708;53.124;23.190;2022-07-05T10:37:24;28.60;90.10
32215;DHT22;18708;53.124;23.190;2022-07-05T10:39:51;29.00;91.70
32215;DHT22;18708;53.124;23.190;2022-07-05T10:42:16;29.20;85.50
32215;DHT22;18708;53.124;23.190;2022-07-05T10:44:42;28.80;84.30
32215;DHT22;18708;53.124;23.190;2022-07-05T10:47:08;28.30;88.40
32215;DHT22;18708;53.124;23.190;2022-07-05T10:49:36;28.20;86.10
32215;DHT22;18708;53.124;23.190;2022-07-05T10:52:02;28.20;85.50
32215;DHT22;18708;53.124;23.190;2022-07-05T10:54:28;27.80;87.10
32215;DHT22;18708;53.124;23.190;2022-07-05T11:00:07;28.60;90.30
32215;DHT22;18708;53.124;23.190;2022-07-05T11:02:33;28.60;86.50
32215;DHT22;18708;53.124;23.190;2022-07-05T11:04:59;29.30;86.30
32215;DHT22;18708;53.124;23.190;2022-07-05T11:10:09;29.20;83.40
32215;DHT22;18708;53.124;23.190;2022-07-05T11:12:37;29.10;81.90
32215;DHT22;18708;53.124;23.190;2022-07-05T11:15:06;29.10;82.10
32215;DHT22;18708;53.124;23.190;2022-07-05T11:17:34;29.50;85.50
32215;DHT22;18708;53.124;23.190;2022-07-05T11:20:15;29.80;84.70
32215;DHT22;18708;53.124;23.190;2022-07-05T11:25:31;29.60;83.90
32215;DHT22;18708;53.124;23.190;2022-07-05T11:30:44;28.80;83.00
32215;DHT22;18708;53.124;23.190;2022-07-05T11:33:26;28.90;82.70
32215;DHT22;18708;53.124;23.190;2022-07-05T11:35:51;29.00;81.30
32215;DHT22;18708;53.124;23.190;2022-07-05T11:38:17;28.60;83.00
32215;DHT22;18708;53.124;23.190;2022-07-05T11:40:43;29.60;83.00
32215;DHT22;18708;53.124;23.190;2022-07-05T11:43:08;30.80;79.50
32215;DHT22;18708;53.124;23.190;2022-07-05T11:45:34;30.80;77.20
32215;DHT22;18708;53.124;23.190;2022-07-05T11:48:00;30.20;78.10
32215;DHT22;18708;53.124;23.190;2022-07-05T11:50:29;31.00;79.70
32215;DHT22;18708;53.124;23.190;2022-07-05T11:52:55;30.90;78.00
32215;DHT22;18708;53.124;23.190;2022-07-05T11:55:21;30.50;79.40
32215;DHT22;18708;53.124;23.190;2022-07-05T11:57:52;30.90;77.20
32215;DHT22;18708;53.124;23.190;2022-07-05T12:00:30;30.90;78.10
32215;DHT22;18708;53.124;23.190;2022-07-05T12:02:56;30.50;78.30
32215;DHT22;18708;53.124;23.190;2022-07-05T12:05:21;31.10;78.20
32215;DHT22;18708;53.124;23.190;2022-07-05T12:07:51;31.40;79.00
32215;DHT22;18708;53.124;23.190;2022-07-05T12:10:16;31.70;74.40
32215;DHT22;18708;53.124;23.190;2022-07-05T12:13:05;31.50;77.80
32215;DHT22;18708;53.124;23.190;2022-07-05T12:15:31;31.00;77.40
32215;DHT22;18708;53.124;23.190;2022-07-05T12:17:57;30.80;78.10
32215;DHT22;18708;53.124;23.190;2022-07-05T12:20:25;30.40;79.20
32215;DHT22;18708;53.124;23.190;2022-07-05T12:22:51;30.20;77.80
32215;DHT22;18708;53.124;23.190;2022-07-05T12:25:18;30.30;80.40
32215;DHT22;18708;53.124;23.190;2022-07-05T12:27:44;30.40;79.00
32215;DHT22;18708;53.124;23.190;2022-07-05T12:30:10;29.80;79.10
32215;DHT22;18708;53.124;23.190;2022-07-05T12:35:33;29.30;79.90
32215;DHT22;18708;53.124;23.190;2022-07-05T12:38:05;29.30;78.00
32215;DHT22;18708;53.124;23.190;2022-07-05T12:40:31;29.00;83.20
32215;DHT22;18708;53.124;23.190;2022-07-05T12:43:04;29.00;85.30
32215;DHT22;18708;53.124;23.190;2022-07-05T12:45:30;28.70;80.70
32215;DHT22;18708;53.124;23.190;2022-07-05T12:47:57;28.40;83.10
32215;DHT22;18708;53.124;23.190;2022-07-05T12:50:23;28.20;84.20
32215;DHT22;18708;53.124;23.190;2022-07-05T12:53:02;28.10;85.60
32215;DHT22;18708;53.124;23.190;2022-07-05T12:55:46;28.20;80.40
32215;DHT22;18708;53.124;23.190;2022-07-05T12:58:30;27.90;82.10
32215;DHT22;18708;53.124;23.190;2022-07-05T13:00:56;27.90;83.00
32215;DHT22;18708;53.124;23.190;2022-07-05T13:03:22;28.00;81.50
32215;DHT22;18708;53.124;23.190;2022-07-05T13:05:59;28.10;82.00
32215;DHT22;18708;53.124;23.190;2022-07-05T13:08:28;28.10;85.90
32215;DHT22;18708;53.124;23.190;2022-07-05T13:10:53;28.10;82.10
32215;DHT22;18708;53.124;23.190;2022-07-05T13:13:19;28.10;85.90
32215;DHT22;18708;53.124;23.190;2022-07-05T13:15:45;28.60;82.90
32215;DHT22;18708;53.124;23.190;2022-07-05T13:18:11;28.90;81.90
32215;DHT22;18708;53.124;23.190;2022-07-05T13:20:36;28.60;82.80
32215;DHT22;18708;53.124;23.190;2022-07-05T13:23:02;28.20;79.40
32215;DHT22;18708;53.124;23.190;2022-07-05T13:25:27;27.80;79.70
32215;DHT22;18708;53.124;23.190;2022-07-05T13:27:53;27.70;81.00
32215;DHT22;18708;53.124;23.190;2022-07-05T13:30:20;27.70;81.30
32215;DHT22;18708;53.124;23.190;2022-07-05T13:32:46;27.60;81.00
32215;DHT22;18708;53.124;23.190;2022-07-05T13:35:11;27.50;85.40
32215;DHT22;18708;53.124;23.190;2022-07-05T13:37:37;27.70;81.00
32215;DHT22;18708;53.124;23.190;2022-07-05T13:40:03;27.70;83.90
32215;DHT22;18708;53.124;23.190;2022-07-05T13:42:29;27.70;81.40
32215;DHT22;18708;53.124;23.190;2022-07-05T13:44:54;27.40;82.60
32215;DHT22;18708;53.124;23.190;2022-07-05T13:47:20;27.50;84.30
32215;DHT22;18708;53.124;23.190;2022-07-05T13:49:45;27.60;83.10
32215;DHT22;18708;53.124;23.190;2022-07-05T13:52:11;27.70;86.70
32215;DHT22;18708;53.124;23.190;2022-07-05T13:54:37;27.70;84.30
32215;DHT22;18708;53.124;23.190;2022-07-05T13:57:02;27.40;81.10
32215;DHT22;18708;53.124;23.190;2022-07-05T13:59:28;25.10;81.10
32215;DHT22;18708;53.124;23.190;2022-07-05T14:01:53;27.10;82.50
32215;DHT22;18708;53.124;23.190;2022-07-05T14:04:19;26.80;82.80
32215;DHT22;18708;53.124;23.190;2022-07-05T14:06:45;26.70;83.10
32215;DHT22;18708;53.124;23.190;2022-07-05T14:09:11;26.60;83.00
32215;DHT22;18708;53.124;23.190;2022-07-05T14:11:37;26.40;83.90
32215;DHT22;18708;53.124;23.190;2022-07-05T14:14:02;26.40;84.20
32215;DHT22;18708;53.124;23.190;2022-07-05T14:16:28;26.40;84.10
32215;DHT22;18708;53.124;23.190;2022-07-05T14:18:54;26.20;84.60
32215;DHT22;18708;53.124;23.190;2022-07-05T14:21:21;26.10;84.70
32215;DHT22;18708;53.124;23.190;2022-07-05T14:23:46;26.00;83.70
32215;DHT22;18708;53.124;23.190;2022-07-05T14:26:16;25.90;86.80
32215;DHT22;18708;53.124;23.190;2022-07-05T14:28:42;25.90;84.80
32215;DHT22;18708;53.124;23.190;2022-07-05T14:31:07;26.00;87.00
32215;DHT22;18708;53.124;23.190;2022-07-05T14:33:33;26.10;88.00
32215;DHT22;18708;53.124;23.190;2022-07-05T14:35:59;26.10;84.70
32215;DHT22;18708;53.124;23.190;2022-07-05T14:38:24;26.00;87.20
32215;DHT22;18708;53.124;23.190;2022-07-05T14:40:50;25.80;86.40
32215;DHT22;18708;53.124;23.190;2022-07-05T14:43:15;25.80;86.70
32215;DHT22;18708;53.124;23.190;2022-07-05T14:45:41;25.80;85.10
32215;DHT22;18708;53.124;23.190;2022-07-05T14:48:06;25.80;86.70
32215;DHT22;18708;53.124;23.190;2022-07-05T14:50:32;25.80;87.20
32215;DHT22;18708;53.124;23.190;2022-07-05T14:52:57;25.80;85.90
32215;DHT22;18708;53.124;23.190;2022-07-05T14:55:23;25.70;85.20
32215;DHT22;18708;53.124;23.190;2022-07-05T14:57:49;25.70;85.20
32215;DHT22;18708;53.124;23.190;2022-07-05T15:00:15;25.70;86.60
32215;DHT22;18708;53.124;23.190;2022-07-05T15:02:40;25.70;85.50
32215;DHT22;18708;53.124;23.190;2022-07-05T15:05:06;25.60;85.50
32215;DHT22;18708;53.124;23.190;2022-07-05T15:07:33;25.50;84.70
32215;DHT22;18708;53.124;23.190;2022-07-05T15:09:59;25.50;84.80
32215;DHT22;18708;53.124;23.190;2022-07-05T15:12:24;25.40;87.80
32215;DHT22;18708;53.124;23.190;2022-07-05T15:14:50;25.40;87.20
32215;DHT22;18708;53.124;23.190;2022-07-05T15:17:15;25.40;85.80
32215;DHT22;18708;53.124;23.190;2022-07-05T15:19:41;25.20;85.30
32215;DHT22;18708;53.124;23.190;2022-07-05T15:22:07;25.20;87.40
32215;DHT22;18708;53.124;23.190;2022-07-05T15:24:33;25.20;86.30
32215;DHT22;18708;53.124;23.190;2022-07-05T15:26:58;25.10;84.40
32215;DHT22;18708;53.124;23.190;2022-07-05T15:29:26;25.00;85.40